Airfield :
LOGIN :

Register | Disclaimer

   EN    FR    IT 

 










Legend :    VFR   Marginal VFR   IFR   Intensive IFR   Very Intensive IFR
Visi :
Ceiling :
>= 8 km
>= 3000ft
5 to 8 km
1000 to 3000 ft
1500m to 5 km
500 to 1000 ft
800 to 1500m
200 to 500 ft
< 800m
< 200 ft
Symbols :   Thunderstorms  Fog  Heavy snow  Heavy precipitations  Wind > 20 kt
SIGMETs :     Misc.  Thunderstorms  Icing  Turbulence  Mountain Waves  Volcanic Ashes






- Airport Elevation : 359 ft
- IATA code : DEB


LHDC - Debrecen

CURRENT METAR :
  • 300715Z AUTO 01020G30KT 340V050 8000 NSC 04/M03 Q1015

EXPIRED METARs :
  • 300645Z AUTO 01022G33KT 340V050 8000 NSC 04/M03 Q1015
  • 300615Z AUTO 02020KT 340V060 8000 NCD 05/M02 Q1014
  • 300545Z AUTO 01017G30KT 350V050 9000 NCD 05/M01 Q1014
  • 300515Z AUTO 01018KT 350V050 9000 NCD 05/M00 Q1013
  • 300445Z AUTO 02018KT 350V050 9000 NSC 05/00 Q1013

Expired Forecast.



MET'MAP, your aeronautical weather chart ! - Copyright ORBIFLY December 2007 - Disclaimer

ORBIFLY MET'MAP TEAM :

Programming & Development : Alexandra Zaïnal
Concept & original design : Baudouin d'Aumeries
Assistance for programming : Marc-Olivier Méhu
Technical & hardware support : Manuel Goepfert

Contact : metmap@orbifly.com




SOURCES & CREDITS :

   NOAA